首页
METAR-TAF:

METAR-TAF

机场 :

卡塔赫纳, 哥伦比亚

纬度: 10-27N, 经度: 075-31W, 海拔: 1米

当前天气观测

该预报发布于52分钟前的01:00 UTC
风速3节,风向,在北转西北东转东北之间变化
温度 28°C
湿度 89%
气压 1010 hPa
能见度10公里或以上
少量云层高于1700英尺

METAR: SKCG 250100Z 01003KT 340V060 9999 FEW017 28/26 Q1010 RETS

时间: 20:52 (01:52 UTC)

预报

该预报发布于3小时和22分钟前的22:30 UTC
预报有效从25日的 00点(UTC)到 25日的 24点(UTC)
风速6节,风向西北
能见度10公里或以上
少量云层高于1500英尺
短暂存在
从 25日的 00点(UTC)到 25日的 03点(UTC)
少量云层高于1500英尺, 积雨云.
几率 40% :
短暂存在
从 25日的 18点(UTC)到 25日的 21点(UTC)
少量云层高于1500英尺, 积雨云.
雨,

TAF: SKCG 242230Z 2500/2524 32006KT 9999 FEW015 TEMPO 2500/2503 RA FEW015CB PROB40 TEMPO 2518/2521 RA FEW015CB TX33/2518Z TN27/2510Z

超过4000个机场的气象观测和天气预报(METAR&TAF报告)。

可查询的气象台以黄色和红色小点在地图上表示。

将鼠标移到小点上方,可查看气象台名称。

然后点击查看天气观测和预报。

如需切换地图:点击带黑十字的绿色按钮放大地图;点击带横线的绿色按钮缩小地图;或者点击绿色箭头查看邻近地区的地图。


METAR-TAF: